sensor_id;sensor_type;location;lat;lon;timestamp;P1;durP1;ratioP1;P2;durP2;ratioP2
11827;SDS011;5971;49.646;8.568;2022-10-16T00:01:43;3.25;;;1.25;;
11827;SDS011;5971;49.646;8.568;2022-10-16T00:04:44;1.10;;;0.73;;
11827;SDS011;5971;49.646;8.568;2022-10-16T00:07:45;1.00;;;0.75;;
11827;SDS011;5971;49.646;8.568;2022-10-16T00:10:47;1.20;;;0.73;;
11827;SDS011;5971;49.646;8.568;2022-10-16T00:13:48;2.08;;;1.60;;
11827;SDS011;5971;49.646;8.568;2022-10-16T00:16:50;0.95;;;0.60;;
11827;SDS011;5971;49.646;8.568;2022-10-16T00:19:51;1.55;;;0.93;;
11827;SDS011;5971;49.646;8.568;2022-10-16T00:22:53;1.92;;;1.02;;
11827;SDS011;5971;49.646;8.568;2022-10-16T00:25:55;1.80;;;1.48;;
11827;SDS011;5971;49.646;8.568;2022-10-16T00:28:57;2.30;;;1.08;;
11827;SDS011;5971;49.646;8.568;2022-10-16T00:31:58;3.67;;;0.95;;
11827;SDS011;5971;49.646;8.568;2022-10-16T00:35:00;1.70;;;0.93;;
11827;SDS011;5971;49.646;8.568;2022-10-16T00:38:01;2.05;;;1.17;;
11827;SDS011;5971;49.646;8.568;2022-10-16T00:41:02;2.28;;;1.00;;
11827;SDS011;5971;49.646;8.568;2022-10-16T00:44:40;2.22;;;1.10;;
11827;SDS011;5971;49.646;8.568;2022-10-16T00:47:35;1.85;;;1.15;;
11827;SDS011;5971;49.646;8.568;2022-10-16T00:50:38;2.13;;;1.25;;
11827;SDS011;5971;49.646;8.568;2022-10-16T00:53:40;3.47;;;1.50;;
11827;SDS011;5971;49.646;8.568;2022-10-16T00:56:42;3.17;;;1.30;;
11827;SDS011;5971;49.646;8.568;2022-10-16T00:59:44;2.90;;;1.63;;
11827;SDS011;5971;49.646;8.568;2022-10-16T01:02:52;3.45;;;1.42;;
11827;SDS011;5971;49.646;8.568;2022-10-16T01:12:23;4.28;;;2.22;;
11827;SDS011;5971;49.646;8.568;2022-10-16T01:15:29;3.50;;;1.67;;
11827;SDS011;5971;49.646;8.568;2022-10-16T01:21:52;3.05;;;1.58;;
11827;SDS011;5971;49.646;8.568;2022-10-16T01:24:54;3.40;;;1.77;;
11827;SDS011;5971;49.646;8.568;2022-10-16T01:27:56;4.30;;;2.30;;
11827;SDS011;5971;49.646;8.568;2022-10-16T01:30:58;4.05;;;1.95;;
11827;SDS011;5971;49.646;8.568;2022-10-16T01:34:03;4.32;;;2.50;;
11827;SDS011;5971;49.646;8.568;2022-10-16T01:37:08;4.18;;;2.47;;
11827;SDS011;5971;49.646;8.568;2022-10-16T01:40:11;4.68;;;2.63;;
11827;SDS011;5971;49.646;8.568;2022-10-16T01:43:14;6.55;;;2.90;;
11827;SDS011;5971;49.646;8.568;2022-10-16T01:46:17;4.47;;;2.15;;
11827;SDS011;5971;49.646;8.568;2022-10-16T01:49:20;3.92;;;1.95;;
11827;SDS011;5971;49.646;8.568;2022-10-16T01:52:23;3.80;;;2.13;;
11827;SDS011;5971;49.646;8.568;2022-10-16T01:58:27;3.95;;;2.55;;
11827;SDS011;5971;49.646;8.568;2022-10-16T02:01:32;4.50;;;2.42;;
11827;SDS011;5971;49.646;8.568;2022-10-16T02:04:36;8.70;;;2.30;;
11827;SDS011;5971;49.646;8.568;2022-10-16T02:07:37;4.70;;;2.47;;
11827;SDS011;5971;49.646;8.568;2022-10-16T02:10:39;4.82;;;2.40;;
11827;SDS011;5971;49.646;8.568;2022-10-16T02:13:47;5.30;;;2.53;;
11827;SDS011;5971;49.646;8.568;2022-10-16T02:16:49;6.28;;;4.13;;
11827;SDS011;5971;49.646;8.568;2022-10-16T02:19:51;5.95;;;3.78;;
11827;SDS011;5971;49.646;8.568;2022-10-16T02:22:53;7.68;;;3.65;;
11827;SDS011;5971;49.646;8.568;2022-10-16T02:25:55;9.90;;;4.45;;
11827;SDS011;5971;49.646;8.568;2022-10-16T02:29:00;4.80;;;2.40;;
11827;SDS011;5971;49.646;8.568;2022-10-16T02:32:02;4.32;;;2.08;;
11827;SDS011;5971;49.646;8.568;2022-10-16T02:35:05;4.97;;;2.28;;
11827;SDS011;5971;49.646;8.568;2022-10-16T02:38:07;3.50;;;1.88;;
11827;SDS011;5971;49.646;8.568;2022-10-16T02:41:14;3.55;;;1.83;;
11827;SDS011;5971;49.646;8.568;2022-10-16T02:44:15;3.85;;;1.80;;
11827;SDS011;5971;49.646;8.568;2022-10-16T02:47:16;3.15;;;1.75;;
11827;SDS011;5971;49.646;8.568;2022-10-16T02:50:17;3.08;;;1.80;;
11827;SDS011;5971;49.646;8.568;2022-10-16T02:53:19;3.25;;;2.30;;
11827;SDS011;5971;49.646;8.568;2022-10-16T02:56:20;3.25;;;1.77;;
11827;SDS011;5971;49.646;8.568;2022-10-16T02:59:22;3.65;;;1.77;;
11827;SDS011;5971;49.646;8.568;2022-10-16T03:02:23;4.60;;;2.53;;
11827;SDS011;5971;49.646;8.568;2022-10-16T03:05:24;4.13;;;1.92;;
11827;SDS011;5971;49.646;8.568;2022-10-16T03:08:26;3.40;;;1.90;;
11827;SDS011;5971;49.646;8.568;2022-10-16T03:11:27;4.32;;;2.13;;
11827;SDS011;5971;49.646;8.568;2022-10-16T03:14:29;4.10;;;2.13;;
11827;SDS011;5971;49.646;8.568;2022-10-16T03:17:31;5.28;;;2.47;;
11827;SDS011;5971;49.646;8.568;2022-10-16T03:20:32;4.93;;;2.53;;
11827;SDS011;5971;49.646;8.568;2022-10-16T03:23:34;6.03;;;2.42;;
11827;SDS011;5971;49.646;8.568;2022-10-16T03:26:35;4.47;;;2.70;;
11827;SDS011;5971;49.646;8.568;2022-10-16T03:29:36;5.10;;;2.17;;
11827;SDS011;5971;49.646;8.568;2022-10-16T03:32:38;4.05;;;1.67;;
11827;SDS011;5971;49.646;8.568;2022-10-16T03:35:39;3.47;;;1.95;;
11827;SDS011;5971;49.646;8.568;2022-10-16T03:38:40;4.78;;;2.22;;
11827;SDS011;5971;49.646;8.568;2022-10-16T03:41:41;6.68;;;2.97;;
11827;SDS011;5971;49.646;8.568;2022-10-16T03:44:43;6.18;;;2.83;;
11827;SDS011;5971;49.646;8.568;2022-10-16T03:47:44;5.05;;;2.67;;
11827;SDS011;5971;49.646;8.568;2022-10-16T03:50:45;4.30;;;2.15;;
11827;SDS011;5971;49.646;8.568;2022-10-16T03:53:49;4.60;;;2.00;;
11827;SDS011;5971;49.646;8.568;2022-10-16T03:56:50;4.80;;;2.45;;
11827;SDS011;5971;49.646;8.568;2022-10-16T03:59:51;3.55;;;2.10;;
11827;SDS011;5971;49.646;8.568;2022-10-16T04:02:52;4.72;;;2.05;;
11827;SDS011;5971;49.646;8.568;2022-10-16T04:05:53;5.30;;;2.13;;
11827;SDS011;5971;49.646;8.568;2022-10-16T04:08:55;6.30;;;3.20;;
11827;SDS011;5971;49.646;8.568;2022-10-16T04:11:57;7.57;;;3.65;;
11827;SDS011;5971;49.646;8.568;2022-10-16T04:14:58;10.50;;;4.65;;
11827;SDS011;5971;49.646;8.568;2022-10-16T04:17:59;7.88;;;4.20;;
11827;SDS011;5971;49.646;8.568;2022-10-16T04:21:04;7.43;;;4.60;;
11827;SDS011;5971;49.646;8.568;2022-10-16T04:24:06;6.90;;;2.47;;
11827;SDS011;5971;49.646;8.568;2022-10-16T04:27:07;4.82;;;2.60;;
11827;SDS011;5971;49.646;8.568;2022-10-16T04:30:10;5.88;;;2.78;;
11827;SDS011;5971;49.646;8.568;2022-10-16T04:33:11;5.80;;;2.75;;
11827;SDS011;5971;49.646;8.568;2022-10-16T04:36:13;4.32;;;2.08;;
11827;SDS011;5971;49.646;8.568;2022-10-16T04:39:15;4.68;;;2.22;;
11827;SDS011;5971;49.646;8.568;2022-10-16T04:42:16;5.85;;;2.22;;
11827;SDS011;5971;49.646;8.568;2022-10-16T04:45:17;5.55;;;2.20;;
11827;SDS011;5971;49.646;8.568;2022-10-16T04:48:19;4.07;;;2.53;;
11827;SDS011;5971;49.646;8.568;2022-10-16T04:51:20;5.63;;;2.00;;
11827;SDS011;5971;49.646;8.568;2022-10-16T04:54:21;4.57;;;2.50;;
11827;SDS011;5971;49.646;8.568;2022-10-16T04:57:22;4.70;;;1.83;;
11827;SDS011;5971;49.646;8.568;2022-10-16T05:00:24;4.47;;;2.30;;
11827;SDS011;5971;49.646;8.568;2022-10-16T05:03:26;5.78;;;2.20;;
11827;SDS011;5971;49.646;8.568;2022-10-16T05:06:27;4.30;;;2.13;;
11827;SDS011;5971;49.646;8.568;2022-10-16T05:09:28;3.33;;;2.30;;
11827;SDS011;5971;49.646;8.568;2022-10-16T05:12:29;3.40;;;1.83;;
11827;SDS011;5971;49.646;8.568;2022-10-16T05:15:31;4.68;;;2.20;;
11827;SDS011;5971;49.646;8.568;2022-10-16T05:18:32;3.55;;;1.85;;
11827;SDS011;5971;49.646;8.568;2022-10-16T05:21:33;3.72;;;1.60;;
11827;SDS011;5971;49.646;8.568;2022-10-16T05:24:35;4.32;;;2.05;;
11827;SDS011;5971;49.646;8.568;2022-10-16T05:27:36;4.53;;;2.58;;
11827;SDS011;5971;49.646;8.568;2022-10-16T05:30:37;6.53;;;2.70;;
11827;SDS011;5971;49.646;8.568;2022-10-16T05:33:39;7.78;;;2.50;;
11827;SDS011;5971;49.646;8.568;2022-10-16T05:36:40;4.18;;;2.60;;
11827;SDS011;5971;49.646;8.568;2022-10-16T05:39:41;3.55;;;2.10;;
11827;SDS011;5971;49.646;8.568;2022-10-16T05:42:43;3.67;;;2.03;;
11827;SDS011;5971;49.646;8.568;2022-10-16T05:45:44;4.90;;;2.10;;
11827;SDS011;5971;49.646;8.568;2022-10-16T05:48:45;3.42;;;2.00;;
11827;SDS011;5971;49.646;8.568;2022-10-16T05:51:46;4.20;;;2.30;;
11827;SDS011;5971;49.646;8.568;2022-10-16T05:54:48;4.88;;;2.00;;
11827;SDS011;5971;49.646;8.568;2022-10-16T05:57:50;3.60;;;2.03;;
11827;SDS011;5971;49.646;8.568;2022-10-16T06:01:01;5.97;;;2.03;;
11827;SDS011;5971;49.646;8.568;2022-10-16T06:04:03;3.70;;;1.73;;
11827;SDS011;5971;49.646;8.568;2022-10-16T06:07:04;3.40;;;2.08;;
11827;SDS011;5971;49.646;8.568;2022-10-16T06:10:05;3.63;;;2.08;;
11827;SDS011;5971;49.646;8.568;2022-10-16T06:13:07;4.28;;;2.15;;
11827;SDS011;5971;49.646;8.568;2022-10-16T06:16:09;4.82;;;2.10;;
11827;SDS011;5971;49.646;8.568;2022-10-16T06:19:10;4.60;;;2.22;;
11827;SDS011;5971;49.646;8.568;2022-10-16T06:22:12;4.03;;;2.28;;
11827;SDS011;5971;49.646;8.568;2022-10-16T06:25:14;4.47;;;1.92;;
11827;SDS011;5971;49.646;8.568;2022-10-16T06:28:15;3.90;;;2.08;;
11827;SDS011;5971;49.646;8.568;2022-10-16T06:31:17;3.55;;;1.90;;
11827;SDS011;5971;49.646;8.568;2022-10-16T06:34:19;3.33;;;1.90;;
11827;SDS011;5971;49.646;8.568;2022-10-16T06:37:21;4.15;;;2.45;;
11827;SDS011;5971;49.646;8.568;2022-10-16T06:40:24;6.35;;;3.03;;
11827;SDS011;5971;49.646;8.568;2022-10-16T06:43:30;4.43;;;2.13;;
11827;SDS011;5971;49.646;8.568;2022-10-16T06:46:38;6.32;;;3.50;;
11827;SDS011;5971;49.646;8.568;2022-10-16T06:49:40;5.85;;;2.63;;
11827;SDS011;5971;49.646;8.568;2022-10-16T06:52:41;6.28;;;3.00;;
11827;SDS011;5971;49.646;8.568;2022-10-16T06:55:42;5.05;;;2.88;;
11827;SDS011;5971;49.646;8.568;2022-10-16T06:58:44;5.90;;;3.70;;
11827;SDS011;5971;49.646;8.568;2022-10-16T07:01:45;8.07;;;4.07;;
11827;SDS011;5971;49.646;8.568;2022-10-16T07:04:47;5.07;;;2.97;;
11827;SDS011;5971;49.646;8.568;2022-10-16T07:07:48;6.25;;;4.15;;
11827;SDS011;5971;49.646;8.568;2022-10-16T07:10:58;4.93;;;3.10;;
11827;SDS011;5971;49.646;8.568;2022-10-16T07:14:00;6.38;;;3.30;;
11827;SDS011;5971;49.646;8.568;2022-10-16T07:17:03;6.88;;;3.38;;
11827;SDS011;5971;49.646;8.568;2022-10-16T07:20:05;9.23;;;4.25;;
11827;SDS011;5971;49.646;8.568;2022-10-16T07:23:07;5.97;;;3.58;;
11827;SDS011;5971;49.646;8.568;2022-10-16T07:26:10;5.07;;;3.13;;
11827;SDS011;5971;49.646;8.568;2022-10-16T07:29:12;5.35;;;2.58;;
11827;SDS011;5971;49.646;8.568;2022-10-16T07:32:15;4.95;;;2.67;;
11827;SDS011;5971;49.646;8.568;2022-10-16T07:35:16;6.03;;;2.55;;
11827;SDS011;5971;49.646;8.568;2022-10-16T07:38:18;3.67;;;2.40;;
11827;SDS011;5971;49.646;8.568;2022-10-16T07:41:20;3.95;;;2.30;;
11827;SDS011;5971;49.646;8.568;2022-10-16T07:44:22;4.45;;;2.35;;
11827;SDS011;5971;49.646;8.568;2022-10-16T07:47:23;4.63;;;2.45;;
11827;SDS011;5971;49.646;8.568;2022-10-16T07:50:25;6.45;;;2.78;;
11827;SDS011;5971;49.646;8.568;2022-10-16T07:53:33;7.07;;;4.03;;
11827;SDS011;5971;49.646;8.568;2022-10-16T07:56:35;4.25;;;3.25;;
11827;SDS011;5971;49.646;8.568;2022-10-16T07:59:40;4.60;;;2.30;;
11827;SDS011;5971;49.646;8.568;2022-10-16T08:02:41;4.10;;;2.17;;
11827;SDS011;5971;49.646;8.568;2022-10-16T08:05:42;3.60;;;1.75;;
11827;SDS011;5971;49.646;8.568;2022-10-16T08:08:43;4.32;;;2.42;;
11827;SDS011;5971;49.646;8.568;2022-10-16T08:11:45;3.13;;;1.58;;
11827;SDS011;5971;49.646;8.568;2022-10-16T08:14:46;4.32;;;1.52;;
11827;SDS011;5971;49.646;8.568;2022-10-16T08:17:57;3.13;;;1.75;;
11827;SDS011;5971;49.646;8.568;2022-10-16T08:20:59;3.67;;;2.17;;
11827;SDS011;5971;49.646;8.568;2022-10-16T08:24:01;4.53;;;2.20;;
11827;SDS011;5971;49.646;8.568;2022-10-16T08:27:02;3.95;;;2.17;;
11827;SDS011;5971;49.646;8.568;2022-10-16T08:30:05;4.93;;;2.30;;
11827;SDS011;5971;49.646;8.568;2022-10-16T08:33:07;3.65;;;2.13;;
11827;SDS011;5971;49.646;8.568;2022-10-16T08:36:10;3.65;;;2.33;;
11827;SDS011;5971;49.646;8.568;2022-10-16T08:39:11;3.65;;;2.03;;
11827;SDS011;5971;49.646;8.568;2022-10-16T08:48:35;3.80;;;1.95;;
11827;SDS011;5971;49.646;8.568;2022-10-16T08:51:41;4.18;;;2.90;;
11827;SDS011;5971;49.646;8.568;2022-10-16T08:54:45;4.78;;;2.42;;
11827;SDS011;5971;49.646;8.568;2022-10-16T08:57:48;7.60;;;2.90;;
11827;SDS011;5971;49.646;8.568;2022-10-16T09:00:52;5.32;;;2.63;;
11827;SDS011;5971;49.646;8.568;2022-10-16T09:07:27;6.15;;;3.50;;
11827;SDS011;5971;49.646;8.568;2022-10-16T09:10:36;6.35;;;3.33;;
11827;SDS011;5971;49.646;8.568;2022-10-16T09:16:48;4.50;;;2.25;;
11827;SDS011;5971;49.646;8.568;2022-10-16T09:19:56;3.92;;;2.20;;
11827;SDS011;5971;49.646;8.568;2022-10-16T09:26:19;4.18;;;1.83;;
11827;SDS011;5971;49.646;8.568;2022-10-16T09:29:27;3.67;;;2.53;;
11827;SDS011;5971;49.646;8.568;2022-10-16T09:32:29;3.67;;;1.80;;
11827;SDS011;5971;49.646;8.568;2022-10-16T09:35:37;3.17;;;2.03;;
11827;SDS011;5971;49.646;8.568;2022-10-16T09:38:39;3.00;;;1.95;;
11827;SDS011;5971;49.646;8.568;2022-10-16T09:41:41;2.72;;;1.45;;
11827;SDS011;5971;49.646;8.568;2022-10-16T09:44:47;4.45;;;2.17;;
11827;SDS011;5971;49.646;8.568;2022-10-16T09:47:48;3.65;;;2.25;;
11827;SDS011;5971;49.646;8.568;2022-10-16T09:50:58;3.20;;;1.70;;
11827;SDS011;5971;49.646;8.568;2022-10-16T09:57:10;3.78;;;1.80;;
11827;SDS011;5971;49.646;8.568;2022-10-16T10:00:15;3.20;;;1.70;;
11827;SDS011;5971;49.646;8.568;2022-10-16T10:03:33;3.28;;;1.20;;
11827;SDS011;5971;49.646;8.568;2022-10-16T10:06:37;3.42;;;1.60;;
11827;SDS011;5971;49.646;8.568;2022-10-16T10:09:42;4.13;;;1.42;;
11827;SDS011;5971;49.646;8.568;2022-10-16T10:12:45;2.67;;;1.30;;
11827;SDS011;5971;49.646;8.568;2022-10-16T10:15:47;2.55;;;1.30;;
11827;SDS011;5971;49.646;8.568;2022-10-16T10:18:57;2.53;;;1.67;;
11827;SDS011;5971;49.646;8.568;2022-10-16T10:22:00;2.38;;;1.17;;
11827;SDS011;5971;49.646;8.568;2022-10-16T10:25:12;2.53;;;1.13;;
11827;SDS011;5971;49.646;8.568;2022-10-16T10:31:44;2.15;;;1.33;;
11827;SDS011;5971;49.646;8.568;2022-10-16T10:38:09;2.53;;;1.52;;
11827;SDS011;5971;49.646;8.568;2022-10-16T10:47:47;1.83;;;1.10;;
11827;SDS011;5971;49.646;8.568;2022-10-16T10:50:54;2.20;;;1.02;;
11827;SDS011;5971;49.646;8.568;2022-10-16T10:54:03;2.10;;;1.02;;
11827;SDS011;5971;49.646;8.568;2022-10-16T10:57:09;2.00;;;1.20;;
11827;SDS011;5971;49.646;8.568;2022-10-16T11:00:21;2.08;;;1.15;;
11827;SDS011;5971;49.646;8.568;2022-10-16T11:06:33;2.08;;;1.02;;
11827;SDS011;5971;49.646;8.568;2022-10-16T11:09:36;1.90;;;1.10;;
11827;SDS011;5971;49.646;8.568;2022-10-16T11:12:40;2.25;;;1.20;;
11827;SDS011;5971;49.646;8.568;2022-10-16T11:15:43;1.75;;;1.00;;
11827;SDS011;5971;49.646;8.568;2022-10-16T11:18:51;2.05;;;1.15;;
11827;SDS011;5971;49.646;8.568;2022-10-16T11:22:03;2.50;;;1.08;;
11827;SDS011;5971;49.646;8.568;2022-10-16T11:25:11;2.53;;;1.15;;
11827;SDS011;5971;49.646;8.568;2022-10-16T11:28:31;1.75;;;1.10;;
11827;SDS011;5971;49.646;8.568;2022-10-16T11:31:39;2.33;;;1.15;;
11827;SDS011;5971;49.646;8.568;2022-10-16T11:34:44;2.60;;;1.92;;
11827;SDS011;5971;49.646;8.568;2022-10-16T11:37:48;1.95;;;1.13;;
11827;SDS011;5971;49.646;8.568;2022-10-16T11:40:51;1.55;;;1.10;;
11827;SDS011;5971;49.646;8.568;2022-10-16T12:00:25;2.30;;;1.33;;
11827;SDS011;5971;49.646;8.568;2022-10-16T12:03:29;2.75;;;1.17;;
11827;SDS011;5971;49.646;8.568;2022-10-16T12:06:37;2.65;;;1.45;;
11827;SDS011;5971;49.646;8.568;2022-10-16T12:09:41;2.65;;;1.30;;
11827;SDS011;5971;49.646;8.568;2022-10-16T12:12:43;2.78;;;1.42;;
11827;SDS011;5971;49.646;8.568;2022-10-16T12:15:46;2.83;;;1.50;;
11827;SDS011;5971;49.646;8.568;2022-10-16T12:19:03;3.17;;;1.70;;
11827;SDS011;5971;49.646;8.568;2022-10-16T12:22:15;2.33;;;1.52;;
11827;SDS011;5971;49.646;8.568;2022-10-16T12:25:22;3.85;;;1.45;;
11827;SDS011;5971;49.646;8.568;2022-10-16T12:28:29;2.53;;;1.40;;
11827;SDS011;5971;49.646;8.568;2022-10-16T12:31:36;2.50;;;1.13;;
11827;SDS011;5971;49.646;8.568;2022-10-16T12:34:45;2.78;;;1.50;;
11827;SDS011;5971;49.646;8.568;2022-10-16T12:37:48;3.00;;;1.65;;
11827;SDS011;5971;49.646;8.568;2022-10-16T12:41:01;2.03;;;1.20;;
11827;SDS011;5971;49.646;8.568;2022-10-16T12:44:03;2.10;;;1.30;;
11827;SDS011;5971;49.646;8.568;2022-10-16T12:47:04;2.53;;;1.40;;
11827;SDS011;5971;49.646;8.568;2022-10-16T12:53:27;2.80;;;1.58;;
11827;SDS011;5971;49.646;8.568;2022-10-16T12:59:44;2.63;;;1.40;;
11827;SDS011;5971;49.646;8.568;2022-10-16T13:15:22;2.80;;;1.35;;
11827;SDS011;5971;49.646;8.568;2022-10-16T13:18:28;2.50;;;1.30;;
11827;SDS011;5971;49.646;8.568;2022-10-16T13:21:33;2.70;;;1.60;;
11827;SDS011;5971;49.646;8.568;2022-10-16T13:24:48;3.47;;;1.60;;
11827;SDS011;5971;49.646;8.568;2022-10-16T13:27:56;3.50;;;1.58;;
11827;SDS011;5971;49.646;8.568;2022-10-16T13:30:58;2.50;;;1.33;;
11827;SDS011;5971;49.646;8.568;2022-10-16T13:34:00;3.10;;;1.55;;
11827;SDS011;5971;49.646;8.568;2022-10-16T13:37:02;3.53;;;1.60;;
11827;SDS011;5971;49.646;8.568;2022-10-16T13:40:22;2.88;;;1.60;;
11827;SDS011;5971;49.646;8.568;2022-10-16T13:43:46;4.50;;;1.65;;
11827;SDS011;5971;49.646;8.568;2022-10-16T13:46:57;3.42;;;1.80;;
11827;SDS011;5971;49.646;8.568;2022-10-16T13:50:06;2.97;;;1.65;;
11827;SDS011;5971;49.646;8.568;2022-10-16T13:53:13;4.22;;;1.85;;
11827;SDS011;5971;49.646;8.568;2022-10-16T13:56:16;5.30;;;1.70;;
11827;SDS011;5971;49.646;8.568;2022-10-16T13:59:25;3.45;;;1.88;;
11827;SDS011;5971;49.646;8.568;2022-10-16T14:02:31;4.72;;;1.73;;
11827;SDS011;5971;49.646;8.568;2022-10-16T14:05:47;2.83;;;1.67;;
11827;SDS011;5971;49.646;8.568;2022-10-16T14:08:50;3.13;;;1.63;;
11827;SDS011;5971;49.646;8.568;2022-10-16T14:12:02;3.22;;;2.13;;
11827;SDS011;5971;49.646;8.568;2022-10-16T14:15:04;4.30;;;1.70;;
11827;SDS011;5971;49.646;8.568;2022-10-16T14:18:06;5.03;;;1.63;;
11827;SDS011;5971;49.646;8.568;2022-10-16T14:21:11;2.65;;;1.50;;
11827;SDS011;5971;49.646;8.568;2022-10-16T14:24:13;3.85;;;1.63;;
11827;SDS011;5971;49.646;8.568;2022-10-16T14:27:23;3.50;;;1.60;;
11827;SDS011;5971;49.646;8.568;2022-10-16T14:30:26;3.22;;;1.80;;
11827;SDS011;5971;49.646;8.568;2022-10-16T14:36:29;2.92;;;1.67;;
11827;SDS011;5971;49.646;8.568;2022-10-16T14:39:31;2.35;;;1.58;;
11827;SDS011;5971;49.646;8.568;2022-10-16T14:42:32;3.20;;;1.45;;
11827;SDS011;5971;49.646;8.568;2022-10-16T14:45:34;3.00;;;1.40;;
11827;SDS011;5971;49.646;8.568;2022-10-16T14:48:36;3.50;;;1.38;;
11827;SDS011;5971;49.646;8.568;2022-10-16T14:51:41;2.97;;;1.80;;
11827;SDS011;5971;49.646;8.568;2022-10-16T14:54:43;3.53;;;1.70;;
11827;SDS011;5971;49.646;8.568;2022-10-16T14:57:44;3.78;;;2.15;;
11827;SDS011;5971;49.646;8.568;2022-10-16T15:00:46;7.75;;;3.92;;
11827;SDS011;5971;49.646;8.568;2022-10-16T15:03:48;6.45;;;3.60;;
11827;SDS011;5971;49.646;8.568;2022-10-16T15:06:49;6.68;;;3.65;;
11827;SDS011;5971;49.646;8.568;2022-10-16T15:09:51;4.18;;;2.70;;
11827;SDS011;5971;49.646;8.568;2022-10-16T15:12:52;7.18;;;2.88;;
11827;SDS011;5971;49.646;8.568;2022-10-16T15:15:54;4.90;;;3.17;;
11827;SDS011;5971;49.646;8.568;2022-10-16T15:18:55;2.95;;;1.83;;
11827;SDS011;5971;49.646;8.568;2022-10-16T15:21:56;3.47;;;1.95;;
11827;SDS011;5971;49.646;8.568;2022-10-16T15:24:58;2.97;;;1.73;;
11827;SDS011;5971;49.646;8.568;2022-10-16T15:27:59;3.50;;;1.73;;
11827;SDS011;5971;49.646;8.568;2022-10-16T15:31:01;3.03;;;1.92;;
11827;SDS011;5971;49.646;8.568;2022-10-16T15:34:05;3.40;;;2.13;;
11827;SDS011;5971;49.646;8.568;2022-10-16T15:37:08;3.65;;;1.50;;
11827;SDS011;5971;49.646;8.568;2022-10-16T15:40:10;3.28;;;1.60;;
11827;SDS011;5971;49.646;8.568;2022-10-16T15:43:11;3.60;;;2.40;;
11827;SDS011;5971;49.646;8.568;2022-10-16T15:46:13;2.90;;;1.52;;
11827;SDS011;5971;49.646;8.568;2022-10-16T15:49:15;3.40;;;1.85;;
11827;SDS011;5971;49.646;8.568;2022-10-16T15:52:16;4.82;;;1.88;;
11827;SDS011;5971;49.646;8.568;2022-10-16T15:55:18;3.08;;;1.55;;
11827;SDS011;5971;49.646;8.568;2022-10-16T15:58:19;4.78;;;2.42;;
11827;SDS011;5971;49.646;8.568;2022-10-16T16:01:21;8.95;;;3.78;;
11827;SDS011;5971;49.646;8.568;2022-10-16T16:04:22;4.80;;;2.72;;
11827;SDS011;5971;49.646;8.568;2022-10-16T16:07:44;3.70;;;2.03;;
11827;SDS011;5971;49.646;8.568;2022-10-16T16:10:45;4.80;;;2.10;;
11827;SDS011;5971;49.646;8.568;2022-10-16T16:13:46;4.28;;;2.08;;
11827;SDS011;5971;49.646;8.568;2022-10-16T16:16:48;5.55;;;2.40;;
11827;SDS011;5971;49.646;8.568;2022-10-16T16:19:50;4.95;;;2.95;;
11827;SDS011;5971;49.646;8.568;2022-10-16T16:22:51;4.57;;;2.83;;
11827;SDS011;5971;49.646;8.568;2022-10-16T16:26:06;6.18;;;2.90;;
11827;SDS011;5971;49.646;8.568;2022-10-16T16:29:12;6.22;;;2.97;;
11827;SDS011;5971;49.646;8.568;2022-10-16T16:32:14;5.80;;;2.75;;
11827;SDS011;5971;49.646;8.568;2022-10-16T16:35:15;5.85;;;3.00;;
11827;SDS011;5971;49.646;8.568;2022-10-16T16:38:17;5.53;;;3.88;;
11827;SDS011;5971;49.646;8.568;2022-10-16T16:41:26;5.53;;;2.50;;
11827;SDS011;5971;49.646;8.568;2022-10-16T16:44:28;4.68;;;2.80;;
11827;SDS011;5971;49.646;8.568;2022-10-16T16:47:29;4.10;;;2.28;;
11827;SDS011;5971;49.646;8.568;2022-10-16T16:50:34;3.83;;;2.33;;
11827;SDS011;5971;49.646;8.568;2022-10-16T16:53:36;3.40;;;1.73;;
11827;SDS011;5971;49.646;8.568;2022-10-16T16:56:37;3.80;;;1.98;;
11827;SDS011;5971;49.646;8.568;2022-10-16T16:59:38;6.38;;;2.00;;
11827;SDS011;5971;49.646;8.568;2022-10-16T17:02:39;5.07;;;2.10;;
11827;SDS011;5971;49.646;8.568;2022-10-16T17:05:54;3.78;;;2.10;;
11827;SDS011;5971;49.646;8.568;2022-10-16T17:08:56;4.07;;;2.55;;
11827;SDS011;5971;49.646;8.568;2022-10-16T17:11:58;3.42;;;2.00;;
11827;SDS011;5971;49.646;8.568;2022-10-16T17:15:00;4.95;;;2.47;;
11827;SDS011;5971;49.646;8.568;2022-10-16T17:18:02;4.07;;;1.92;;
11827;SDS011;5971;49.646;8.568;2022-10-16T17:21:05;4.53;;;2.90;;
11827;SDS011;5971;49.646;8.568;2022-10-16T17:24:08;4.47;;;2.22;;
11827;SDS011;5971;49.646;8.568;2022-10-16T17:27:09;3.70;;;2.22;;
11827;SDS011;5971;49.646;8.568;2022-10-16T17:30:12;5.22;;;2.67;;
11827;SDS011;5971;49.646;8.568;2022-10-16T17:33:15;6.28;;;3.08;;
11827;SDS011;5971;49.646;8.568;2022-10-16T17:36:16;5.68;;;3.28;;
11827;SDS011;5971;49.646;8.568;2022-10-16T17:39:18;6.28;;;3.40;;
11827;SDS011;5971;49.646;8.568;2022-10-16T17:42:20;6.10;;;3.10;;
11827;SDS011;5971;49.646;8.568;2022-10-16T17:45:21;5.28;;;3.00;;
11827;SDS011;5971;49.646;8.568;2022-10-16T17:48:22;5.43;;;3.05;;
11827;SDS011;5971;49.646;8.568;2022-10-16T17:51:25;8.30;;;3.50;;
11827;SDS011;5971;49.646;8.568;2022-10-16T17:54:26;8.15;;;3.90;;
11827;SDS011;5971;49.646;8.568;2022-10-16T17:57:28;6.05;;;3.25;;
11827;SDS011;5971;49.646;8.568;2022-10-16T18:00:29;5.88;;;3.55;;
11827;SDS011;5971;49.646;8.568;2022-10-16T18:03:30;5.15;;;3.22;;
11827;SDS011;5971;49.646;8.568;2022-10-16T18:06:32;5.68;;;3.47;;
11827;SDS011;5971;49.646;8.568;2022-10-16T18:09:33;5.45;;;3.30;;
11827;SDS011;5971;49.646;8.568;2022-10-16T18:12:35;8.32;;;4.07;;
11827;SDS011;5971;49.646;8.568;2022-10-16T18:15:36;5.68;;;3.40;;
11827;SDS011;5971;49.646;8.568;2022-10-16T18:18:38;7.03;;;3.97;;
11827;SDS011;5971;49.646;8.568;2022-10-16T18:21:39;6.82;;;3.10;;
11827;SDS011;5971;49.646;8.568;2022-10-16T18:24:41;4.72;;;2.88;;
11827;SDS011;5971;49.646;8.568;2022-10-16T18:27:42;5.07;;;3.22;;
11827;SDS011;5971;49.646;8.568;2022-10-16T18:30:43;6.97;;;3.97;;
11827;SDS011;5971;49.646;8.568;2022-10-16T18:33:45;6.20;;;3.55;;
11827;SDS011;5971;49.646;8.568;2022-10-16T18:36:51;6.45;;;3.92;;
11827;SDS011;5971;49.646;8.568;2022-10-16T18:42:56;11.48;;;4.88;;
11827;SDS011;5971;49.646;8.568;2022-10-16T18:45:58;5.47;;;3.60;;
11827;SDS011;5971;49.646;8.568;2022-10-16T18:48:59;8.88;;;3.97;;
11827;SDS011;5971;49.646;8.568;2022-10-16T18:52:02;7.65;;;3.83;;
11827;SDS011;5971;49.646;8.568;2022-10-16T18:55:03;6.40;;;3.50;;
11827;SDS011;5971;49.646;8.568;2022-10-16T18:58:04;5.75;;;3.63;;
11827;SDS011;5971;49.646;8.568;2022-10-16T19:01:06;4.82;;;3.53;;
11827;SDS011;5971;49.646;8.568;2022-10-16T19:04:09;6.30;;;3.13;;
11827;SDS011;5971;49.646;8.568;2022-10-16T19:07:11;6.55;;;3.33;;
11827;SDS011;5971;49.646;8.568;2022-10-16T19:10:16;9.50;;;4.70;;
11827;SDS011;5971;49.646;8.568;2022-10-16T19:13:17;7.90;;;4.40;;
11827;SDS011;5971;49.646;8.568;2022-10-16T19:16:20;8.07;;;4.10;;
11827;SDS011;5971;49.646;8.568;2022-10-16T19:19:22;6.07;;;3.72;;
11827;SDS011;5971;49.646;8.568;2022-10-16T19:22:23;7.38;;;3.47;;
11827;SDS011;5971;49.646;8.568;2022-10-16T19:25:31;7.15;;;4.40;;
11827;SDS011;5971;49.646;8.568;2022-10-16T19:28:36;8.88;;;4.22;;
11827;SDS011;5971;49.646;8.568;2022-10-16T19:31:38;8.27;;;4.38;;
11827;SDS011;5971;49.646;8.568;2022-10-16T19:34:39;8.73;;;5.55;;
11827;SDS011;5971;49.646;8.568;2022-10-16T19:37:40;13.98;;;4.18;;
11827;SDS011;5971;49.646;8.568;2022-10-16T19:40:42;8.50;;;6.15;;
11827;SDS011;5971;49.646;8.568;2022-10-16T19:43:43;8.23;;;5.82;;
11827;SDS011;5971;49.646;8.568;2022-10-16T19:46:45;10.23;;;5.60;;
11827;SDS011;5971;49.646;8.568;2022-10-16T19:49:48;12.05;;;6.20;;
11827;SDS011;5971;49.646;8.568;2022-10-16T19:52:50;8.30;;;5.63;;
11827;SDS011;5971;49.646;8.568;2022-10-16T19:55:51;11.25;;;7.03;;
11827;SDS011;5971;49.646;8.568;2022-10-16T19:58:53;11.18;;;6.15;;
11827;SDS011;5971;49.646;8.568;2022-10-16T20:01:54;6.38;;;3.95;;
11827;SDS011;5971;49.646;8.568;2022-10-16T20:04:56;6.03;;;3.95;;
11827;SDS011;5971;49.646;8.568;2022-10-16T20:07:58;6.75;;;4.15;;
11827;SDS011;5971;49.646;8.568;2022-10-16T20:10:59;7.43;;;3.25;;